sensor_id;sensor_type;location;lat;lon;timestamp;P1;durP1;ratioP1;P2;durP2;ratioP2
24751;SDS011;27246;52.376;4.628;2022-12-16T00:04:29;3.85;;;1.90;;
24751;SDS011;27246;52.376;4.628;2022-12-16T00:09:30;2.30;;;1.35;;
24751;SDS011;27246;52.376;4.628;2022-12-16T00:14:32;3.10;;;1.50;;
24751;SDS011;27246;52.376;4.628;2022-12-16T00:19:34;2.30;;;1.70;;
24751;SDS011;27246;52.376;4.628;2022-12-16T00:24:35;3.75;;;1.60;;
24751;SDS011;27246;52.376;4.628;2022-12-16T00:29:37;2.60;;;1.40;;
24751;SDS011;27246;52.376;4.628;2022-12-16T00:34:38;5.55;;;2.47;;
24751;SDS011;27246;52.376;4.628;2022-12-16T00:39:41;2.47;;;1.40;;
24751;SDS011;27246;52.376;4.628;2022-12-16T00:44:43;3.45;;;1.52;;
24751;SDS011;27246;52.376;4.628;2022-12-16T00:49:44;3.95;;;1.40;;
24751;SDS011;27246;52.376;4.628;2022-12-16T00:54:47;4.70;;;1.23;;
24751;SDS011;27246;52.376;4.628;2022-12-16T00:59:49;4.60;;;1.80;;
24751;SDS011;27246;52.376;4.628;2022-12-16T01:04:50;4.95;;;1.90;;
24751;SDS011;27246;52.376;4.628;2022-12-16T01:09:52;4.63;;;1.48;;
24751;SDS011;27246;52.376;4.628;2022-12-16T01:14:55;5.90;;;1.65;;
24751;SDS011;27246;52.376;4.628;2022-12-16T01:19:56;4.85;;;1.25;;
24751;SDS011;27246;52.376;4.628;2022-12-16T01:24:58;3.40;;;1.45;;
24751;SDS011;27246;52.376;4.628;2022-12-16T01:30:00;4.47;;;1.75;;
24751;SDS011;27246;52.376;4.628;2022-12-16T01:35:03;5.05;;;1.45;;
24751;SDS011;27246;52.376;4.628;2022-12-16T01:40:23;7.25;;;1.88;;
24751;SDS011;27246;52.376;4.628;2022-12-16T01:50:34;3.70;;;1.40;;
24751;SDS011;27246;52.376;4.628;2022-12-16T01:55:37;5.20;;;1.70;;
24751;SDS011;27246;52.376;4.628;2022-12-16T02:00:44;4.65;;;1.40;;
24751;SDS011;27246;52.376;4.628;2022-12-16T02:05:45;3.03;;;1.30;;
24751;SDS011;27246;52.376;4.628;2022-12-16T02:11:07;2.20;;;1.30;;
24751;SDS011;27246;52.376;4.628;2022-12-16T02:16:31;3.00;;;1.58;;
24751;SDS011;27246;52.376;4.628;2022-12-16T02:42:59;4.05;;;1.60;;
24751;SDS011;27246;52.376;4.628;2022-12-16T02:48:08;4.07;;;1.60;;
24751;SDS011;27246;52.376;4.628;2022-12-16T02:53:10;3.60;;;1.38;;
24751;SDS011;27246;52.376;4.628;2022-12-16T02:58:33;6.53;;;1.20;;
24751;SDS011;27246;52.376;4.628;2022-12-16T03:03:44;2.92;;;1.08;;
24751;SDS011;27246;52.376;4.628;2022-12-16T03:08:52;6.25;;;1.70;;
24751;SDS011;27246;52.376;4.628;2022-12-16T03:13:58;5.20;;;1.83;;
24751;SDS011;27246;52.376;4.628;2022-12-16T03:19:02;4.88;;;1.98;;
24751;SDS011;27246;52.376;4.628;2022-12-16T03:24:09;6.50;;;1.65;;
24751;SDS011;27246;52.376;4.628;2022-12-16T03:29:20;4.22;;;1.60;;
24751;SDS011;27246;52.376;4.628;2022-12-16T03:34:40;3.53;;;1.45;;
24751;SDS011;27246;52.376;4.628;2022-12-16T03:39:47;2.40;;;1.40;;
24751;SDS011;27246;52.376;4.628;2022-12-16T03:44:52;4.05;;;1.52;;
24751;SDS011;27246;52.376;4.628;2022-12-16T03:49:54;3.75;;;1.58;;
24751;SDS011;27246;52.376;4.628;2022-12-16T03:54:56;7.03;;;1.35;;
24751;SDS011;27246;52.376;4.628;2022-12-16T03:59:57;4.25;;;1.73;;
24751;SDS011;27246;52.376;4.628;2022-12-16T04:04:59;3.00;;;1.67;;
24751;SDS011;27246;52.376;4.628;2022-12-16T04:10:01;4.85;;;1.30;;
24751;SDS011;27246;52.376;4.628;2022-12-16T04:15:03;7.28;;;1.70;;
24751;SDS011;27246;52.376;4.628;2022-12-16T04:20:26;3.20;;;1.30;;
24751;SDS011;27246;52.376;4.628;2022-12-16T04:25:50;4.82;;;1.67;;
24751;SDS011;27246;52.376;4.628;2022-12-16T04:30:52;3.50;;;1.23;;
24751;SDS011;27246;52.376;4.628;2022-12-16T04:35:55;4.88;;;1.77;;
24751;SDS011;27246;52.376;4.628;2022-12-16T04:41:16;4.78;;;1.23;;
24751;SDS011;27246;52.376;4.628;2022-12-16T04:46:37;4.82;;;1.65;;
24751;SDS011;27246;52.376;4.628;2022-12-16T04:51:57;3.17;;;1.85;;
24751;SDS011;27246;52.376;4.628;2022-12-16T04:57:18;4.07;;;1.60;;
24751;SDS011;27246;52.376;4.628;2022-12-16T05:02:38;4.28;;;1.85;;
24751;SDS011;27246;52.376;4.628;2022-12-16T05:07:58;4.72;;;2.03;;
24751;SDS011;27246;52.376;4.628;2022-12-16T05:13:18;5.18;;;2.15;;
24751;SDS011;27246;52.376;4.628;2022-12-16T05:18:39;4.97;;;2.78;;
24751;SDS011;27246;52.376;4.628;2022-12-16T05:23:59;7.68;;;2.50;;
24751;SDS011;27246;52.376;4.628;2022-12-16T05:29:19;6.10;;;3.25;;
24751;SDS011;27246;52.376;4.628;2022-12-16T05:34:40;7.20;;;2.97;;
24751;SDS011;27246;52.376;4.628;2022-12-16T05:40:00;6.47;;;2.45;;
24751;SDS011;27246;52.376;4.628;2022-12-16T05:45:20;6.78;;;3.03;;
24751;SDS011;27246;52.376;4.628;2022-12-16T05:50:41;6.57;;;2.72;;
24751;SDS011;27246;52.376;4.628;2022-12-16T05:56:01;5.43;;;2.65;;
24751;SDS011;27246;52.376;4.628;2022-12-16T06:01:21;4.15;;;3.00;;
24751;SDS011;27246;52.376;4.628;2022-12-16T06:06:42;5.05;;;2.72;;
24751;SDS011;27246;52.376;4.628;2022-12-16T06:12:03;6.18;;;3.05;;
24751;SDS011;27246;52.376;4.628;2022-12-16T06:17:23;5.60;;;3.10;;
24751;SDS011;27246;52.376;4.628;2022-12-16T06:28:09;8.77;;;4.00;;
24751;SDS011;27246;52.376;4.628;2022-12-16T06:33:29;5.15;;;3.45;;
24751;SDS011;27246;52.376;4.628;2022-12-16T06:38:55;9.43;;;3.72;;
24751;SDS011;27246;52.376;4.628;2022-12-16T06:44:29;8.52;;;3.80;;
24751;SDS011;27246;52.376;4.628;2022-12-16T06:55:10;6.53;;;4.03;;
24751;SDS011;27246;52.376;4.628;2022-12-16T07:00:30;7.57;;;4.20;;
24751;SDS011;27246;52.376;4.628;2022-12-16T07:05:54;8.30;;;4.32;;
24751;SDS011;27246;52.376;4.628;2022-12-16T07:11:14;7.88;;;4.72;;
24751;SDS011;27246;52.376;4.628;2022-12-16T07:16:34;8.45;;;4.90;;
24751;SDS011;27246;52.376;4.628;2022-12-16T07:27:16;5.93;;;4.30;;
24751;SDS011;27246;52.376;4.628;2022-12-16T07:32:36;8.27;;;5.28;;
24751;SDS011;27246;52.376;4.628;2022-12-16T07:37:56;9.32;;;5.70;;
24751;SDS011;27246;52.376;4.628;2022-12-16T07:43:17;11.63;;;6.97;;
24751;SDS011;27246;52.376;4.628;2022-12-16T07:53:57;21.17;;;11.40;;
24751;SDS011;27246;52.376;4.628;2022-12-16T07:59:18;18.08;;;11.77;;
24751;SDS011;27246;52.376;4.628;2022-12-16T08:04:38;19.83;;;12.18;;
24751;SDS011;27246;52.376;4.628;2022-12-16T08:09:58;19.73;;;10.45;;
24751;SDS011;27246;52.376;4.628;2022-12-16T08:15:20;17.13;;;9.73;;
24751;SDS011;27246;52.376;4.628;2022-12-16T08:20:41;21.38;;;11.23;;
24751;SDS011;27246;52.376;4.628;2022-12-16T08:26:01;14.30;;;8.77;;
24751;SDS011;27246;52.376;4.628;2022-12-16T08:31:21;18.27;;;10.27;;
24751;SDS011;27246;52.376;4.628;2022-12-16T08:36:42;15.35;;;10.48;;
24751;SDS011;27246;52.376;4.628;2022-12-16T08:42:02;25.60;;;11.55;;
24751;SDS011;27246;52.376;4.628;2022-12-16T08:47:22;20.17;;;10.18;;
24751;SDS011;27246;52.376;4.628;2022-12-16T08:52:43;13.68;;;8.65;;
24751;SDS011;27246;52.376;4.628;2022-12-16T08:58:03;11.57;;;7.18;;
24751;SDS011;27246;52.376;4.628;2022-12-16T09:03:23;10.88;;;5.30;;
24751;SDS011;27246;52.376;4.628;2022-12-16T09:08:44;14.43;;;5.90;;
24751;SDS011;27246;52.376;4.628;2022-12-16T09:14:04;8.75;;;6.05;;
24751;SDS011;27246;52.376;4.628;2022-12-16T09:19:25;12.13;;;8.05;;
24751;SDS011;27246;52.376;4.628;2022-12-16T09:24:45;15.15;;;7.65;;
24751;SDS011;27246;52.376;4.628;2022-12-16T09:30:06;12.88;;;5.22;;
24751;SDS011;27246;52.376;4.628;2022-12-16T09:35:26;9.00;;;4.90;;
24751;SDS011;27246;52.376;4.628;2022-12-16T09:40:47;11.32;;;6.07;;
24751;SDS011;27246;52.376;4.628;2022-12-16T09:46:11;12.07;;;5.55;;
24751;SDS011;27246;52.376;4.628;2022-12-16T09:52:11;11.68;;;6.90;;
24751;SDS011;27246;52.376;4.628;2022-12-16T09:57:35;8.75;;;5.47;;
24751;SDS011;27246;52.376;4.628;2022-12-16T10:02:56;6.95;;;4.28;;
24751;SDS011;27246;52.376;4.628;2022-12-16T10:14:22;5.57;;;3.47;;
24751;SDS011;27246;52.376;4.628;2022-12-16T10:19:59;7.72;;;3.88;;
24751;SDS011;27246;52.376;4.628;2022-12-16T10:25:27;6.40;;;3.42;;
24751;SDS011;27246;52.376;4.628;2022-12-16T10:31:11;5.93;;;3.15;;
24751;SDS011;27246;52.376;4.628;2022-12-16T10:36:34;4.78;;;2.85;;
24751;SDS011;27246;52.376;4.628;2022-12-16T10:41:56;12.95;;;8.60;;
24751;SDS011;27246;52.376;4.628;2022-12-16T10:47:21;7.25;;;4.68;;
24751;SDS011;27246;52.376;4.628;2022-12-16T10:53:01;4.32;;;2.95;;
24751;SDS011;27246;52.376;4.628;2022-12-16T11:04:48;5.47;;;3.30;;
24751;SDS011;27246;52.376;4.628;2022-12-16T11:10:08;5.10;;;3.30;;
24751;SDS011;27246;52.376;4.628;2022-12-16T11:15:43;5.07;;;2.88;;
24751;SDS011;27246;52.376;4.628;2022-12-16T11:21:14;4.53;;;2.05;;
24751;SDS011;27246;52.376;4.628;2022-12-16T11:26:36;3.88;;;2.30;;
24751;SDS011;27246;52.376;4.628;2022-12-16T11:32:19;4.28;;;2.15;;
24751;SDS011;27246;52.376;4.628;2022-12-16T11:37:43;2.75;;;1.95;;
24751;SDS011;27246;52.376;4.628;2022-12-16T11:43:07;7.75;;;2.13;;
24751;SDS011;27246;52.376;4.628;2022-12-16T11:54:26;3.03;;;2.20;;
24751;SDS011;27246;52.376;4.628;2022-12-16T11:59:52;4.78;;;2.35;;
24751;SDS011;27246;52.376;4.628;2022-12-16T12:05:18;3.72;;;2.13;;
24751;SDS011;27246;52.376;4.628;2022-12-16T12:10:55;6.68;;;2.92;;
24751;SDS011;27246;52.376;4.628;2022-12-16T12:22:08;3.80;;;2.20;;
24751;SDS011;27246;52.376;4.628;2022-12-16T12:27:39;5.90;;;2.83;;
24751;SDS011;27246;52.376;4.628;2022-12-16T12:33:37;3.67;;;2.10;;
24751;SDS011;27246;52.376;4.628;2022-12-16T12:39:21;4.35;;;2.17;;
24751;SDS011;27246;52.376;4.628;2022-12-16T12:50:38;6.00;;;2.42;;
24751;SDS011;27246;52.376;4.628;2022-12-16T12:56:14;5.03;;;2.00;;
24751;SDS011;27246;52.376;4.628;2022-12-16T13:01:45;3.55;;;2.15;;
24751;SDS011;27246;52.376;4.628;2022-12-16T13:07:06;3.28;;;2.20;;
24751;SDS011;27246;52.376;4.628;2022-12-16T13:12:31;5.63;;;2.75;;
24751;SDS011;27246;52.376;4.628;2022-12-16T13:34:42;6.07;;;3.00;;
24751;SDS011;27246;52.376;4.628;2022-12-16T13:40:13;4.38;;;2.35;;
24751;SDS011;27246;52.376;4.628;2022-12-16T13:45:39;3.03;;;2.53;;
24751;SDS011;27246;52.376;4.628;2022-12-16T13:51:00;6.15;;;2.38;;
24751;SDS011;27246;52.376;4.628;2022-12-16T13:56:38;2.88;;;2.25;;
24751;SDS011;27246;52.376;4.628;2022-12-16T14:07:40;7.18;;;3.78;;
24751;SDS011;27246;52.376;4.628;2022-12-16T14:13:02;5.70;;;3.58;;
24751;SDS011;27246;52.376;4.628;2022-12-16T14:18:31;6.30;;;3.45;;
24751;SDS011;27246;52.376;4.628;2022-12-16T14:24:05;5.68;;;3.40;;
24751;SDS011;27246;52.376;4.628;2022-12-16T14:29:31;5.15;;;3.38;;
24751;SDS011;27246;52.376;4.628;2022-12-16T14:34:52;6.03;;;2.85;;
24751;SDS011;27246;52.376;4.628;2022-12-16T14:40:22;5.30;;;3.25;;
24751;SDS011;27246;52.376;4.628;2022-12-16T14:45:49;4.70;;;3.97;;
24751;SDS011;27246;52.376;4.628;2022-12-16T14:56:34;7.15;;;4.30;;
24751;SDS011;27246;52.376;4.628;2022-12-16T15:02:14;4.68;;;3.10;;
24751;SDS011;27246;52.376;4.628;2022-12-16T15:07:46;4.93;;;4.15;;
24751;SDS011;27246;52.376;4.628;2022-12-16T15:18:35;10.82;;;6.82;;
24751;SDS011;27246;52.376;4.628;2022-12-16T15:24:00;7.82;;;5.00;;
24751;SDS011;27246;52.376;4.628;2022-12-16T15:29:33;6.05;;;4.15;;
24751;SDS011;27246;52.376;4.628;2022-12-16T15:34:56;8.55;;;5.78;;
24751;SDS011;27246;52.376;4.628;2022-12-16T15:40:26;6.65;;;5.13;;
24751;SDS011;27246;52.376;4.628;2022-12-16T15:45:49;7.07;;;4.80;;
24751;SDS011;27246;52.376;4.628;2022-12-16T15:56:49;9.27;;;6.80;;
24751;SDS011;27246;52.376;4.628;2022-12-16T16:02:26;7.70;;;6.07;;
24751;SDS011;27246;52.376;4.628;2022-12-16T16:07:49;11.20;;;8.00;;
24751;SDS011;27246;52.376;4.628;2022-12-16T16:13:09;12.48;;;8.82;;
24751;SDS011;27246;52.376;4.628;2022-12-16T16:18:30;13.82;;;10.60;;
24751;SDS011;27246;52.376;4.628;2022-12-16T16:23:50;33.00;;;21.88;;
24751;SDS011;27246;52.376;4.628;2022-12-16T16:29:11;83.22;;;52.45;;
24751;SDS011;27246;52.376;4.628;2022-12-16T16:34:31;67.47;;;45.72;;
24751;SDS011;27246;52.376;4.628;2022-12-16T16:39:51;55.80;;;37.55;;
24751;SDS011;27246;52.376;4.628;2022-12-16T16:45:12;46.38;;;32.15;;
24751;SDS011;27246;52.376;4.628;2022-12-16T16:50:32;39.38;;;29.27;;
24751;SDS011;27246;52.376;4.628;2022-12-16T16:55:52;36.03;;;27.17;;
24751;SDS011;27246;52.376;4.628;2022-12-16T17:01:20;42.40;;;29.05;;
24751;SDS011;27246;52.376;4.628;2022-12-16T17:12:01;40.70;;;32.72;;
24751;SDS011;27246;52.376;4.628;2022-12-16T17:17:37;47.15;;;35.50;;
24751;SDS011;27246;52.376;4.628;2022-12-16T17:22:58;49.75;;;39.97;;
24751;SDS011;27246;52.376;4.628;2022-12-16T17:28:37;44.42;;;36.88;;
24751;SDS011;27246;52.376;4.628;2022-12-16T17:33:57;47.03;;;38.13;;
24751;SDS011;27246;52.376;4.628;2022-12-16T17:39:31;46.60;;;39.03;;
24751;SDS011;27246;52.376;4.628;2022-12-16T17:44:52;61.45;;;46.30;;
24751;SDS011;27246;52.376;4.628;2022-12-16T17:50:12;64.35;;;50.17;;
24751;SDS011;27246;52.376;4.628;2022-12-16T17:55:33;63.53;;;52.00;;
24751;SDS011;27246;52.376;4.628;2022-12-16T18:06:19;63.53;;;49.38;;
24751;SDS011;27246;52.376;4.628;2022-12-16T18:11:39;56.38;;;45.78;;
24751;SDS011;27246;52.376;4.628;2022-12-16T18:17:00;64.30;;;52.33;;
24751;SDS011;27246;52.376;4.628;2022-12-16T18:22:20;75.13;;;56.70;;
24751;SDS011;27246;52.376;4.628;2022-12-16T18:27:41;69.30;;;59.47;;
24751;SDS011;27246;52.376;4.628;2022-12-16T18:33:01;73.15;;;58.85;;
24751;SDS011;27246;52.376;4.628;2022-12-16T18:38:26;79.90;;;58.33;;
24751;SDS011;27246;52.376;4.628;2022-12-16T18:49:08;73.20;;;55.58;;
24751;SDS011;27246;52.376;4.628;2022-12-16T18:54:30;73.47;;;59.95;;
24751;SDS011;27246;52.376;4.628;2022-12-16T18:59:51;86.65;;;67.30;;
24751;SDS011;27246;52.376;4.628;2022-12-16T19:05:12;85.85;;;69.15;;
24751;SDS011;27246;52.376;4.628;2022-12-16T19:10:33;84.43;;;66.72;;
24751;SDS011;27246;52.376;4.628;2022-12-16T19:15:54;82.40;;;69.45;;
24751;SDS011;27246;52.376;4.628;2022-12-16T19:21:15;91.30;;;70.68;;
24751;SDS011;27246;52.376;4.628;2022-12-16T19:26:36;82.07;;;65.85;;
24751;SDS011;27246;52.376;4.628;2022-12-16T19:31:57;89.53;;;71.40;;
24751;SDS011;27246;52.376;4.628;2022-12-16T19:37:17;90.07;;;69.53;;
24751;SDS011;27246;52.376;4.628;2022-12-16T19:42:38;101.95;;;80.85;;
24751;SDS011;27246;52.376;4.628;2022-12-16T19:48:00;104.65;;;83.68;;
24751;SDS011;27246;52.376;4.628;2022-12-16T19:53:21;96.00;;;79.47;;
24751;SDS011;27246;52.376;4.628;2022-12-16T19:58:41;107.78;;;86.32;;
24751;SDS011;27246;52.376;4.628;2022-12-16T20:04:02;115.00;;;92.78;;
24751;SDS011;27246;52.376;4.628;2022-12-16T20:09:23;112.15;;;92.93;;
24751;SDS011;27246;52.376;4.628;2022-12-16T20:20:03;118.30;;;88.80;;
24751;SDS011;27246;52.376;4.628;2022-12-16T20:25:24;102.45;;;85.25;;
24751;SDS011;27246;52.376;4.628;2022-12-16T20:30:45;94.57;;;77.65;;
24751;SDS011;27246;52.376;4.628;2022-12-16T20:36:05;82.00;;;67.70;;
24751;SDS011;27246;52.376;4.628;2022-12-16T20:41:27;83.63;;;69.68;;
24751;SDS011;27246;52.376;4.628;2022-12-16T20:46:48;80.30;;;65.10;;
24751;SDS011;27246;52.376;4.628;2022-12-16T20:52:08;78.10;;;65.25;;
24751;SDS011;27246;52.376;4.628;2022-12-16T20:57:28;79.25;;;62.17;;
24751;SDS011;27246;52.376;4.628;2022-12-16T21:02:49;76.95;;;63.05;;
24751;SDS011;27246;52.376;4.628;2022-12-16T21:08:09;80.75;;;65.50;;
24751;SDS011;27246;52.376;4.628;2022-12-16T21:13:30;62.67;;;52.63;;
24751;SDS011;27246;52.376;4.628;2022-12-16T21:18:50;74.03;;;59.00;;
24751;SDS011;27246;52.376;4.628;2022-12-16T21:24:11;85.35;;;66.53;;
24751;SDS011;27246;52.376;4.628;2022-12-16T21:29:31;88.75;;;71.63;;
24751;SDS011;27246;52.376;4.628;2022-12-16T21:40:12;84.82;;;63.35;;
24751;SDS011;27246;52.376;4.628;2022-12-16T21:50:56;60.28;;;47.20;;
24751;SDS011;27246;52.376;4.628;2022-12-16T21:56:16;74.22;;;56.67;;
24751;SDS011;27246;52.376;4.628;2022-12-16T22:01:37;41.92;;;34.03;;
24751;SDS011;27246;52.376;4.628;2022-12-16T22:06:58;68.90;;;51.92;;
24751;SDS011;27246;52.376;4.628;2022-12-16T22:12:18;88.05;;;70.13;;
24751;SDS011;27246;52.376;4.628;2022-12-16T22:17:39;53.53;;;42.22;;
24751;SDS011;27246;52.376;4.628;2022-12-16T22:22:59;47.33;;;36.15;;
24751;SDS011;27246;52.376;4.628;2022-12-16T22:28:28;39.15;;;30.77;;
24751;SDS011;27246;52.376;4.628;2022-12-16T22:33:49;40.83;;;33.78;;
24751;SDS011;27246;52.376;4.628;2022-12-16T22:39:10;29.02;;;24.80;;
24751;SDS011;27246;52.376;4.628;2022-12-16T22:44:30;28.95;;;22.13;;
24751;SDS011;27246;52.376;4.628;2022-12-16T22:49:53;34.22;;;23.25;;
24751;SDS011;27246;52.376;4.628;2022-12-16T22:55:13;24.90;;;19.65;;
24751;SDS011;27246;52.376;4.628;2022-12-16T23:00:33;21.80;;;17.98;;
24751;SDS011;27246;52.376;4.628;2022-12-16T23:05:56;21.08;;;18.20;;
24751;SDS011;27246;52.376;4.628;2022-12-16T23:11:18;25.20;;;19.42;;
24751;SDS011;27246;52.376;4.628;2022-12-16T23:16:45;22.42;;;19.45;;
24751;SDS011;27246;52.376;4.628;2022-12-16T23:22:05;28.45;;;22.20;;
24751;SDS011;27246;52.376;4.628;2022-12-16T23:27:25;25.75;;;19.42;;
24751;SDS011;27246;52.376;4.628;2022-12-16T23:32:46;23.60;;;19.40;;
24751;SDS011;27246;52.376;4.628;2022-12-16T23:38:06;27.73;;;20.38;;
24751;SDS011;27246;52.376;4.628;2022-12-16T23:43:27;24.80;;;19.60;;
24751;SDS011;27246;52.376;4.628;2022-12-16T23:48:48;24.38;;;19.23;;
24751;SDS011;27246;52.376;4.628;2022-12-16T23:54:09;24.42;;;19.33;;
24751;SDS011;27246;52.376;4.628;2022-12-16T23:59:29;24.23;;;19.70;;
